Historyczne dane pomiarowe

Dodano dane terminowe – wersja testowa.

Dane z okresu 1951-2018

Wersja bazy: 1.27 [2018-11-28, lista zmian], aktualizacja planowana na 2018-12-07

Dane meteo z obszaru Polski uzyskane na podstawie danych udostępnionych przez Instytut Meteorologii i Gospodarki Wodnej – Państwowy Instytut Badawczy.

 

Wybierz Datę:    

       

TemperaturaWilgotnośćWiatrCiśnienieOpadyŚniegCzas trwania zjawisk
 Stacja t tx tn tng RH VA  wxwx mslp ppp RRR   cm mm wxwxwxwxwxwxwx
2015-11-08 11.1 17.3 5.4- 69.0- 1.0 6.0---- 0.0------------
2015-11-09 10.9 15.8 5.6- 82.8- 7.3 4.0---- 1.6------------
2015-11-10 13.7 15.5 11.4- 77.8- 8.0 7.3---- 0.0------------
2015-11-11 14.1 15.3 12.9- 85.0- 8.0 4.7---- 0.1------------
2015-11-12 10.1 14.1 7.1- 77.3- 5.0 5.7---- 0.0------------
2015-11-13 8.0 13.9 0.7- 93.0- 6.7 3.7---- 1.4------------
2015-11-14 8.0 12.5 5.5- 73.3- 5.3 7.7---- 1.0------------
2015-11-15 8.2 12.3 4.3- 97.8- 8.0 3.3---- 17.2------------
2015-11-16 8.7 12.3 5.5- 97.3- 8.0 3.3---- 3.6------------
2015-11-17 10.8 13.4 7.5- 92.3- 8.0 5.3---- 10.9------------
2015-11-18 11.3 13.5 9.0- 82.3- 7.0 8.7---- 1.3------------
2015-11-19 11.1 15.4 6.7- 69.0- 7.0 7.7---- 0.2------------
2015-11-20 7.3 12.7 4.0- 87.0- 7.3 4.0---- 4.4------------
2015-11-21 2.2 5.7 -1.1- 90.8- 6.0 1.7---- 0.2------------
2015-11-22 0.0 4.9 -3.7- 96.0- 5.7 3.7---- 0.3------------
2015-11-23 -2.2 2.1 -6.6- 94.3- 7.3 1.7---- 0.0------------
2015-11-24 -0.7 4.3 -3.1- 88.5- 2.7 2.7---- 0.0------------
2015-11-25 -0.1 3.1 -4.5- 81.3- 7.7 2.7---- 0.0------------
2015-11-26 2.7 7.2 -0.3- 93.0- 7.7 1.0---- 0.0------------
2015-11-27 0.7 6.6 -3.5- 88.8- 4.0 2.0---- 0.0------------
2015-11-28 -0.1 5.0 -4.5- 90.8- 5.3 4.3---- 0.4------------
2015-11-29 3.7 6.0 0.0- 88.3- 7.0 6.3---- 7.3------------
2015-11-30 6.2 8.8 4.4- 74.5- 5.0 8.0---- 8.6------------
2015-12-01 4.4 7.1 1.5- 85.0- 6.3 5.7---- 2.7------------
2015-12-02 6.5 10.2 2.3- 95.0- 8.0 3.3---- 0.4------------
2015-12-03 5.3 11.7 0.2- 85.0- 5.0 2.7---- 0.0------------
2015-12-04 3.8 10.3 -2.6- 85.3- 5.3 4.7---- 0.0------------
2015-12-05 5.8 9.9 2.2- 74.8- 4.7 5.7---- 0.0------------
2015-12-06 9.0 13.1 6.0- 67.0- 4.0 7.3---- 0.0------------
2015-12-07 10.0 11.5 8.8- 86.0- 7.3 4.0---- 0.0------------
2164.3 ms

 

Źródłem pochodzenia danych jest Instytut Meteorologii i Gospodarki Wodnej – Państwowy Instytut Badawczy. Dane Instytutu Meteorologii i Gospodarki Wodnej – Państwowego Instytutu Badawczego zostały przetworzone.

Dane źródłowe można odnaleźć na stronie https://dane.imgw.pl